Time;durP1;ratioP1;P1;durP2;ratioP2;P2;SDS_P1;SDS_P2;PMS_P1;PMS_P2;Temp;Humidity;BMP_temperature;BMP_pressure;BME280_temperature;BME280_humidity;BME280_pressure;Samples;Min_cycle;Max_cycle;Signal;HPM_P1;HPM_P2
2022/05/29 00:00:54;;;;;;;17.60;6.00;;;;;;;8.10;70.18;98118.16;106076;1277;25496;-83
2022/05/29 00:03:20;;;;;;;9.20;6.00;;;;;;;8.06;70.33;98112.20;106290;1278;23106;-83
2022/05/29 00:05:49;;;;;;;14.30;6.40;;;;;;;8.01;70.45;98113.73;106292;1276;137143;-83
2022/05/29 00:08:26;;;;;;;13.40;6.00;;;;;;;7.95;70.69;98114.19;106222;1277;23157;-82
2022/05/29 00:10:57;;;;;;;10.90;5.70;;;;;;;7.89;70.89;98118.00;106686;1277;138395;-83
2022/05/29 00:13:24;;;;;;;10.10;5.20;;;;;;;7.79;71.08;98114.60;106171;1276;23895;-83
2022/05/29 00:15:50;;;;;;;12.80;5.50;;;;;;;7.70;71.35;98120.67;106267;1276;22583;-83
2022/05/29 00:18:18;;;;;;;7.60;5.00;;;;;;;7.65;71.48;98120.33;106223;1277;138714;-82
2022/05/29 00:20:50;;;;;;;10.60;4.90;;;;;;;7.62;71.52;98116.13;106492;1277;25489;-82
2022/05/29 00:23:20;;;;;;;10.80;6.20;;;;;;;7.58;71.66;98112.95;106479;1278;137350;-83
2022/05/29 00:25:50;;;;;;;11.50;6.00;;;;;;;7.54;71.86;98115.60;106393;1276;24543;-82
2022/05/29 00:28:17;;;;;;;8.30;5.30;;;;;;;7.48;71.88;98111.91;106285;1277;137519;-82
2022/05/29 00:30:45;;;;;;;8.50;4.70;;;;;;;7.44;72.22;98112.89;106423;1276;23254;-82
2022/05/29 00:33:14;;;;;;;9.80;6.00;;;;;;;7.39;72.29;98108.55;106306;1276;22567;-82
2022/05/29 00:35:42;;;;;;;10.50;4.70;;;;;;;7.33;72.50;98105.10;106189;1277;138153;-82
2022/05/29 00:38:23;;;;;;;7.20;4.70;;;;;;;7.33;72.62;98104.81;106105;1277;22707;-82
2022/05/29 00:41:06;;;;;;;8.30;4.80;;;;;;;7.33;72.86;98104.98;106247;1277;137329;-82
2022/05/29 00:43:32;;;;;;;7.40;4.60;;;;;;;7.29;72.85;98107.75;106272;1277;24387;-82
2022/05/29 00:46:03;;;;;;;10.60;5.10;;;;;;;7.23;72.77;98109.59;106603;1277;24436;-82
2022/05/29 00:48:32;;;;;;;21.30;7.00;;;;;;;7.18;72.73;98106.55;106526;1277;137433;-82
2022/05/29 00:51:03;;;;;;;10.00;5.20;;;;;;;7.15;72.94;98106.27;106135;1277;24424;-83
2022/05/29 00:53:32;;;;;;;11.00;5.00;;;;;;;7.17;72.89;98106.85;106051;1277;137747;-82
2022/05/29 00:56:02;;;;;;;9.60;4.30;;;;;;;7.19;73.11;98108.58;106428;1278;22553;-82
2022/05/29 00:58:28;;;;;;;11.20;5.00;;;;;;;7.21;73.37;98112.16;106119;1277;137319;-82
2022/05/29 01:00:57;;;;;;;8.60;5.20;;;;;;;7.22;73.23;98115.70;106122;1277;22562;-82
2022/05/29 01:03:24;;;;;;;7.50;5.00;;;;;;;7.22;73.29;98110.79;106211;1277;24466;-82
2022/05/29 01:05:51;;;;;;;8.60;4.70;;;;;;;7.23;73.04;98109.98;106346;1275;137229;-82
2022/05/29 01:08:24;;;;;;;11.60;5.40;;;;;;;7.22;73.52;98104.98;106329;1276;22564;-82
2022/05/29 01:11:17;;;;;;;8.10;4.80;;;;;;;7.24;73.26;98110.98;106065;1278;137927;-82
2022/05/29 01:13:53;;;;;;;9.70;5.40;;;;;;;7.26;73.25;98111.69;106339;1276;24402;-82
2022/05/29 01:16:40;;;;;;;11.20;5.40;;;;;;;7.27;73.55;98108.83;106078;1276;137678;-81
2022/05/29 01:19:09;;;;;;;12.20;5.50;;;;;;;7.24;73.30;98100.90;106402;1277;24377;-82
2022/05/29 01:21:59;;;;;;;9.50;5.20;;;;;;;7.22;73.30;98093.87;106342;1277;22547;-82
2022/05/29 01:25:07;;;;;;;9.70;5.00;;;;;;;7.20;73.40;98099.98;106131;1277;138110;-82
2022/05/29 01:27:52;;;;;;;8.30;4.80;;;;;;;7.20;73.41;98098.27;106093;1276;22597;-82
2022/05/29 01:30:23;;;;;;;12.30;5.10;;;;;;;7.22;73.45;98102.98;106069;1276;137338;-81
2022/05/29 01:33:06;;;;;;;8.50;4.90;;;;;;;7.23;73.54;98103.42;106385;1279;23296;-82
2022/05/29 01:35:35;;;;;;;8.00;4.30;;;;;;;7.20;73.78;98106.38;106201;1276;137268;-82
2022/05/29 01:38:10;;;;;;;10.30;5.00;;;;;;;7.17;73.73;98101.43;105913;1280;22715;-81
2022/05/29 01:40:47;;;;;;;9.00;5.00;;;;;;;7.17;73.70;98105.11;106079;1277;139420;-82
2022/05/29 01:43:22;;;;;;;11.70;4.80;;;;;;;7.14;73.50;98108.19;106370;1277;22579;-82
2022/05/29 01:46:06;;;;;;;8.90;5.10;;;;;;;7.10;73.50;98109.71;106172;1277;22613;-82
2022/05/29 01:48:58;;;;;;;10.40;4.20;;;;;;;7.07;73.67;98108.10;106424;1277;137068;-81
2022/05/29 01:51:31;;;;;;;7.60;4.30;;;;;;;7.01;74.01;98104.88;106253;1277;22587;-81
2022/05/29 01:54:18;;;;;;;9.10;4.80;;;;;;;6.97;73.94;98103.95;106072;1277;137283;-81
2022/05/29 01:56:50;;;;;;;8.10;4.30;;;;;;;6.92;74.09;98100.92;106204;1278;22672;-82
2022/05/29 01:59:36;;;;;;;9.50;4.60;;;;;;;6.85;73.97;98104.06;106540;1277;137037;-81
2022/05/29 02:02:09;;;;;;;9.10;4.60;;;;;;;6.80;74.34;98104.84;106494;1277;22716;-81
2022/05/29 02:04:40;;;;;;;9.00;4.90;;;;;;;6.77;74.43;98106.05;105912;1278;137801;-81
2022/05/29 02:10:01;;;;;;;11.80;4.90;;;;;;;6.73;74.83;98108.65;106047;1277;30609;-81
2022/05/29 02:12:31;;;;;;;10.10;5.10;;;;;;;6.70;75.01;98109.35;105837;1279;137533;-81
2022/05/29 02:15:06;;;;;;;7.80;5.40;;;;;;;6.69;75.04;98110.65;106441;1277;22560;-81
2022/05/29 02:17:40;;;;;;;9.00;4.90;;;;;;;6.67;75.18;98113.59;106047;1279;137841;-81
2022/05/29 02:20:29;;;;;;;12.00;5.00;;;;;;;6.67;74.95;98116.13;105996;1277;30579;-81
2022/05/29 02:23:06;;;;;;;7.30;4.10;;;;;;;6.69;75.37;98122.09;105739;1278;137644;-81
2022/05/29 02:25:36;;;;;;;9.70;4.90;;;;;;;6.71;75.48;98120.41;106386;1276;22546;-81
2022/05/29 02:28:10;;;;;;;9.50;5.20;;;;;;;6.72;75.46;98131.59;106530;1277;22566;-80
2022/05/29 02:31:11;;;;;;;9.50;5.60;;;;;;;6.73;75.48;98134.54;106597;1276;137407;-80
2022/05/29 02:33:53;;;;;;;11.60;6.20;;;;;;;6.72;75.11;98138.92;106725;1276;26511;-81
2022/05/29 02:36:35;;;;;;;11.10;6.50;;;;;;;6.68;75.05;98142.52;106104;1279;138184;-81
2022/05/29 02:39:16;;;;;;;12.60;5.90;;;;;;;6.63;75.23;98141.46;106706;1276;24116;-81
2022/05/29 02:42:22;;;;;;;10.40;5.90;;;;;;;6.58;75.56;98140.77;106197;1277;137232;-80
2022/05/29 02:44:54;;;;;;;19.60;6.70;;;;;;;6.53;75.48;98145.50;105931;1277;22598;-80
2022/05/29 02:47:58;;;;;;;10.20;6.00;;;;;;;6.50;75.87;98145.61;106211;1277;137230;-81
2022/05/29 02:50:48;;;;;;;11.40;6.70;;;;;;;6.49;76.11;98152.78;106220;1277;25282;-82
2022/05/29 02:53:15;;;;;;;9.60;6.20;;;;;;;6.49;76.22;98155.33;105803;1277;138013;-83
2022/05/29 02:55:56;;;;;;;12.20;6.20;;;;;;;6.50;76.29;98155.42;105962;1276;22579;-83
2022/05/29 02:58:29;;;;;;;10.10;5.80;;;;;;;6.51;76.42;98153.38;106270;1276;22767;-81
2022/05/29 03:01:19;;;;;;;11.70;6.70;;;;;;;6.49;76.47;98157.89;105790;1277;137785;-81
2022/05/29 03:03:52;;;;;;;13.10;7.10;;;;;;;6.45;76.39;98155.94;106126;1277;25365;-82
2022/05/29 03:06:42;;;;;;;15.20;7.20;;;;;;;6.43;76.66;98157.75;106085;1277;138043;-81
2022/05/29 03:09:33;;;;;;;16.00;6.60;;;;;;;6.42;76.77;98156.77;106172;1277;22542;-81
2022/05/29 03:12:00;;;;;;;12.30;6.60;;;;;;;6.44;77.38;98158.19;106496;1277;137280;-81
2022/05/29 03:14:54;;;;;;;12.80;6.80;;;;;;;6.48;77.05;98155.29;106104;1277;25497;-81
2022/05/29 03:17:33;;;;;;;16.30;7.20;;;;;;;6.47;77.11;98154.80;106127;1278;137530;-81
2022/05/29 03:20:19;;;;;;;9.70;6.30;;;;;;;6.46;77.12;98157.75;106091;1277;24291;-81
2022/05/29 03:23:05;;;;;;;13.60;6.70;;;;;;;6.40;76.90;98160.98;106042;1277;138186;-81
2022/05/29 03:25:37;;;;;;;10.90;6.30;;;;;;;6.39;77.24;98162.24;106282;1278;23304;-81
2022/05/29 03:28:13;;;;;;;12.20;7.10;;;;;;;6.43;77.71;98161.54;106430;1278;23920;-81
2022/05/29 03:30:41;;;;;;;11.70;7.20;;;;;;;6.48;77.85;98163.44;106487;1279;137567;-81
2022/05/29 03:33:12;;;;;;;17.10;8.00;;;;;;;6.53;77.94;98163.72;106608;1277;22696;-80
2022/05/29 03:36:00;;;;;;;14.00;7.20;;;;;;;6.56;77.77;98158.69;106459;1277;140621;-80
2022/05/29 03:38:27;;;;;;;17.80;7.00;;;;;;;6.55;77.61;98156.73;106628;1277;24710;-80
2022/05/29 03:40:53;;;;;;;12.70;7.00;;;;;;;6.52;77.54;98156.95;106422;1277;138612;-80
2022/05/29 03:43:20;;;;;;;14.50;7.70;;;;;;;6.50;77.72;98159.75;106816;1277;22706;-80
2022/05/29 03:45:46;;;;;;;10.50;6.90;;;;;;;6.47;77.90;98158.55;106495;1277;24212;-80
2022/05/29 03:48:15;;;;;;;10.90;7.00;;;;;;;6.49;78.06;98153.61;106559;1277;137805;-80
2022/05/29 03:51:03;;;;;;;13.30;7.40;;;;;;;6.52;78.07;98149.95;106362;1277;22569;-80
2022/05/29 03:53:29;;;;;;;12.80;7.40;;;;;;;6.59;78.43;98152.86;106588;1277;138563;-80
2022/05/29 03:56:10;;;;;;;13.60;7.30;;;;;;;6.65;78.48;98153.79;106141;1277;26751;-80
2022/05/29 03:58:37;;;;;;;15.50;7.50;;;;;;;6.63;78.02;98154.89;106333;1277;137715;-80
2022/05/29 04:01:09;;;;;;;14.10;7.60;;;;;;;6.64;78.19;98156.86;106286;1278;23051;-80
2022/05/29 04:03:53;;;;;;;13.20;8.10;;;;;;;6.66;78.28;98159.17;106456;1276;24425;-80
2022/05/29 04:06:25;;;;;;;14.90;8.80;;;;;;;6.66;78.38;98151.10;106293;1276;139073;-80
2022/05/29 04:14:22;;;;;;;15.30;7.90;;;;;;;6.68;78.70;98156.14;106345;1277;22551;-80
2022/05/29 04:16:49;;;;;;;12.30;7.70;;;;;;;6.74;79.02;98158.38;106262;1277;137378;-80
2022/05/29 04:19:15;;;;;;;15.10;7.70;;;;;;;6.81;78.82;98156.29;106302;1278;22570;-80
2022/05/29 04:21:42;;;;;;;12.90;7.70;;;;;;;6.89;78.99;98156.95;106897;1276;23082;-80
2022/05/29 04:24:12;;;;;;;15.40;7.50;;;;;;;6.97;78.70;98157.54;106458;1277;138173;-80
2022/05/29 04:26:38;;;;;;;13.70;7.90;;;;;;;7.07;78.86;98155.98;106286;1278;22583;-80
2022/05/29 04:29:05;;;;;;;11.20;7.20;;;;;;;7.17;78.64;98152.72;106601;1276;137647;-80
2022/05/29 04:31:33;;;;;;;13.20;8.20;;;;;;;7.25;78.41;98152.02;106869;1276;24253;-80
2022/05/29 04:34:01;;;;;;;14.20;8.00;;;;;;;7.34;78.26;98158.52;106443;1277;23947;-80
2022/05/29 04:36:27;;;;;;;14.40;7.80;;;;;;;7.41;78.04;98158.70;106717;1277;137650;-80
2022/05/29 04:38:55;;;;;;;13.20;7.70;;;;;;;7.50;78.04;98160.23;106655;1277;22595;-81
2022/05/29 04:41:25;;;;;;;13.00;6.60;;;;;;;7.59;78.03;98157.38;106689;1276;137910;-81
2022/05/29 04:43:55;;;;;;;15.10;7.30;;;;;;;7.68;77.58;98158.56;106653;1277;24285;-80
2022/05/29 04:46:21;;;;;;;13.10;6.80;;;;;;;7.75;77.88;98159.28;106768;1277;23300;-80
2022/05/29 04:48:48;;;;;;;14.20;7.20;;;;;;;7.84;77.79;98159.85;106731;1277;137716;-80
2022/05/29 04:51:14;;;;;;;11.70;7.00;;;;;;;7.90;77.64;98162.29;106918;1277;25352;-80
2022/05/29 04:53:40;;;;;;;13.40;7.50;;;;;;;7.97;77.62;98163.73;106739;1277;138105;-80
2022/05/29 04:56:07;;;;;;;14.00;7.10;;;;;;;8.06;77.60;98164.34;106534;1277;25394;-80
2022/05/29 04:58:33;;;;;;;14.10;7.90;;;;;;;8.15;77.44;98164.70;106951;1277;24976;-80
2022/05/29 05:01:01;;;;;;;13.70;7.10;;;;;;;8.24;77.23;98162.84;106643;1277;137383;-80
2022/05/29 05:03:29;;;;;;;12.30;7.50;;;;;;;8.32;77.02;98162.91;107160;1277;24406;-80
2022/05/29 05:05:56;;;;;;;11.80;6.60;;;;;;;8.39;76.84;98162.31;106618;1277;137251;-81
2022/05/29 05:08:23;;;;;;;12.50;6.60;;;;;;;8.46;76.75;98165.41;106485;1277;25589;-80
2022/05/29 05:10:49;;;;;;;13.20;6.30;;;;;;;8.54;76.29;98163.95;106467;1280;138253;-80
2022/05/29 05:13:30;;;;;;;11.20;6.10;;;;;;;8.62;76.05;98162.11;106296;1278;30254;-80
2022/05/29 05:16:11;;;;;;;12.90;6.30;;;;;;;8.71;75.84;98158.38;106538;1276;25389;-80
2022/05/29 05:18:37;;;;;;;12.80;7.20;;;;;;;8.81;75.76;98158.97;106864;1278;138013;-80
2022/05/29 05:21:06;;;;;;;9.30;5.80;;;;;;;8.88;75.45;98155.73;106257;1278;22563;-80
2022/05/29 05:23:32;;;;;;;10.10;6.50;;;;;;;8.94;75.16;98157.11;106591;1277;137153;-80
2022/05/29 05:25:59;;;;;;;11.90;5.40;;;;;;;8.99;75.17;98155.90;106270;1277;22717;-80
2022/05/29 05:28:26;;;;;;;10.70;6.00;;;;;;;9.06;74.80;98155.88;106430;1280;22573;-80
2022/05/29 05:30:52;;;;;;;9.70;5.10;;;;;;;9.13;74.32;98152.97;106304;1277;138145;-81
2022/05/29 05:33:20;;;;;;;12.50;5.70;;;;;;;9.20;74.30;98145.21;106652;1278;22603;-81
2022/05/29 05:35:47;;;;;;;9.70;5.30;;;;;;;9.28;74.12;98145.52;106303;1277;138071;-80
2022/05/29 05:38:13;;;;;;;8.80;5.10;;;;;;;9.37;73.92;98143.33;106354;1277;25335;-80
2022/05/29 05:40:39;;;;;;;12.20;6.00;;;;;;;9.44;73.88;98148.63;106307;1278;137300;-80
2022/05/29 05:43:06;;;;;;;11.00;5.90;;;;;;;9.51;73.81;98150.92;106733;1277;22606;-80
2022/05/29 05:45:32;;;;;;;12.60;5.10;;;;;;;9.60;73.80;98151.18;106359;1277;22569;-81
2022/05/29 05:47:58;;;;;;;10.50;4.90;;;;;;;9.67;73.38;98154.02;106946;1277;137276;-81
2022/05/29 05:50:25;;;;;;;7.70;5.00;;;;;;;9.75;73.20;98154.37;106507;1277;22577;-81
2022/05/29 05:52:51;;;;;;;10.00;4.70;;;;;;;9.84;73.18;98155.00;106314;1277;137932;-81
2022/05/29 05:55:18;;;;;;;8.90;4.50;;;;;;;9.95;72.69;98151.08;106670;1277;22554;-81
2022/05/29 05:57:58;;;;;;;8.10;4.50;;;;;;;10.05;72.22;98153.20;106480;1277;25228;-81
2022/05/29 06:00:25;;;;;;;9.10;5.10;;;;;;;10.12;72.15;98151.98;106450;1277;137587;-81
2022/05/29 06:02:51;;;;;;;11.70;5.30;;;;;;;10.18;71.84;98156.38;106523;1277;22587;-81
2022/05/29 06:05:17;;;;;;;12.90;5.70;;;;;;;10.23;71.98;98152.54;106325;1277;137871;-81
2022/05/29 06:07:43;;;;;;;12.20;5.60;;;;;;;10.31;71.73;98152.17;106447;1278;23081;-81
2022/05/29 06:10:11;;;;;;;13.70;5.20;;;;;;;10.35;71.74;98156.23;106675;1276;25352;-81
2022/05/29 06:12:37;;;;;;;11.10;5.10;;;;;;;10.41;70.99;98158.60;106460;1276;138502;-81
2022/05/29 06:15:05;;;;;;;11.20;5.60;;;;;;;10.48;70.41;98152.25;106331;1277;24306;-81
2022/05/29 06:17:32;;;;;;;10.10;5.70;;;;;;;10.55;70.68;98153.77;106747;1277;137735;-79
2022/05/29 06:19:59;;;;;;;10.30;5.30;;;;;;;10.64;70.01;98144.63;106068;1277;24310;-81
2022/05/29 06:22:26;;;;;;;9.60;4.90;;;;;;;10.73;69.78;98141.62;106319;1277;22647;-82
2022/05/29 06:24:52;;;;;;;14.90;5.30;;;;;;;10.80;69.18;98136.59;106337;1277;137916;-82
2022/05/29 06:27:18;;;;;;;12.10;5.30;;;;;;;10.89;68.75;98135.88;106390;1278;22640;-82
2022/05/29 06:29:45;;;;;;;9.10;3.30;;;;;;;10.97;68.35;98137.77;106388;1276;137789;-82
2022/05/29 06:32:15;;;;;;;9.60;3.20;;;;;;;11.06;68.30;98141.83;106311;1279;24435;-82
2022/05/29 06:34:41;;;;;;;7.40;3.00;;;;;;;11.14;67.26;98137.45;106453;1277;138289;-81
2022/05/29 06:37:22;;;;;;;11.50;3.80;;;;;;;11.23;66.83;98138.58;106292;1277;22816;-82
2022/05/29 06:39:49;;;;;;;11.80;3.90;;;;;;;11.32;66.85;98137.30;106419;1277;23376;-82
2022/05/29 06:42:30;;;;;;;6.30;3.00;;;;;;;11.42;66.98;98137.67;106487;1280;138005;-80
2022/05/29 06:44:58;;;;;;;6.50;3.10;;;;;;;11.51;65.89;98135.80;106461;1277;23777;-81
2022/05/29 06:47:26;;;;;;;5.00;2.50;;;;;;;11.60;65.45;98143.13;106500;1278;137519;-81
2022/05/29 06:49:52;;;;;;;5.60;2.40;;;;;;;11.69;65.40;98144.63;106452;1279;25307;-81
2022/05/29 06:52:19;;;;;;;5.90;2.60;;;;;;;11.78;64.62;98144.53;106377;1279;23402;-82
2022/05/29 06:54:45;;;;;;;6.20;2.60;;;;;;;11.86;64.29;98148.14;106447;1277;137529;-80
2022/05/29 06:57:36;;;;;;;7.10;3.10;;;;;;;11.94;63.76;98143.70;106353;1278;24323;-80
2022/05/29 07:08:02;;;;;;;4.20;2.30;;;;;;;12.29;62.98;98136.41;106564;1277;22570;-82
2022/05/29 07:10:31;;;;;;;8.40;2.90;;;;;;;12.37;62.47;98138.35;106415;1277;22713;-82
2022/05/29 07:12:59;;;;;;;4.80;2.50;;;;;;;12.44;62.36;98136.98;106298;1280;137288;-82
2022/05/29 07:15:26;;;;;;;4.30;2.80;;;;;;;12.54;61.99;98134.67;106411;1277;24299;-82
2022/05/29 07:17:52;;;;;;;9.30;3.20;;;;;;;12.67;61.87;98135.44;106375;1278;137600;-81
2022/05/29 07:20:18;;;;;;;5.30;2.50;;;;;;;12.78;61.57;98131.72;106327;1278;22574;-81
2022/05/29 07:22:45;;;;;;;9.10;2.80;;;;;;;12.90;60.73;98128.05;106548;1279;137934;-82
2022/05/29 07:25:26;;;;;;;6.40;2.70;;;;;;;13.05;60.62;98121.42;106630;1277;25336;-82
2022/05/29 07:27:52;;;;;;;6.60;2.70;;;;;;;13.18;59.78;98119.54;106622;1277;22581;-82
2022/05/29 07:30:18;;;;;;;6.40;2.50;;;;;;;13.27;59.77;98117.59;106417;1280;137556;-82
2022/05/29 07:32:44;;;;;;;5.50;2.10;;;;;;;13.34;60.35;98120.52;106341;1277;22691;-82
2022/05/29 07:35:11;;;;;;;5.30;2.90;;;;;;;13.46;59.74;98118.90;106235;1277;137574;-81
2022/05/29 07:37:38;;;;;;;6.60;2.80;;;;;;;13.53;59.13;98115.73;106713;1277;24525;-76
2022/05/29 07:40:05;;;;;;;4.60;2.10;;;;;;;13.65;58.73;98111.91;106574;1278;22567;-81
2022/05/29 07:45:12;;;;;;;6.00;2.30;;;;;;;13.90;57.77;98105.38;106048;1277;22836;-82
2022/05/29 07:47:42;;;;;;;7.50;2.40;;;;;;;13.98;57.51;98108.22;106443;1277;137446;-82
2022/05/29 07:50:11;;;;;;;4.70;2.20;;;;;;;14.11;57.14;98099.48;106724;1277;27190;-82
2022/05/29 07:52:38;;;;;;;3.70;1.90;;;;;;;14.27;56.64;98099.57;106526;1277;138055;-81
2022/05/29 07:55:19;;;;;;;7.30;2.50;;;;;;;14.45;56.34;98098.63;106416;1277;23470;-82
2022/05/29 07:57:46;;;;;;;5.40;2.20;;;;;;;14.61;56.08;98102.27;106625;1277;22565;-81
2022/05/29 08:00:16;;;;;;;5.40;2.20;;;;;;;14.65;55.11;98099.96;106537;1277;138035;-81
2022/05/29 08:02:44;;;;;;;6.50;2.50;;;;;;;14.60;54.46;98104.25;106433;1277;22557;-81
2022/05/29 08:05:12;;;;;;;6.30;2.40;;;;;;;14.71;54.21;98100.59;106517;1277;137553;-82
2022/05/29 08:07:39;;;;;;;6.30;2.40;;;;;;;14.82;54.17;98100.60;106342;1279;22544;-83
2022/05/29 08:10:22;;;;;;;6.00;2.20;;;;;;;14.88;53.78;98106.98;106449;1277;22546;-82
2022/05/29 08:12:49;;;;;;;7.30;2.40;;;;;;;14.93;53.23;98108.11;106537;1277;138213;-81
2022/05/29 08:15:15;;;;;;;4.60;1.50;;;;;;;15.07;52.83;98107.05;106133;1277;24479;-81
2022/05/29 08:17:42;;;;;;;6.70;1.90;;;;;;;15.20;52.49;98107.23;106522;1277;137708;-82
2022/05/29 08:20:12;;;;;;;6.90;1.90;;;;;;;15.38;52.32;98105.15;106419;1277;24130;-82
2022/05/29 08:22:38;;;;;;;7.20;2.20;;;;;;;15.51;51.62;98101.94;106437;1280;137996;-82
2022/05/29 08:33:15;;;;;;;3.60;1.30;;;;;;;15.67;50.54;98106.35;106743;1278;26611;-81
2022/05/29 08:35:45;;;;;;;3.70;1.40;;;;;;;15.59;49.92;98100.33;106526;1276;138182;-81
2022/05/29 08:38:14;;;;;;;4.20;1.50;;;;;;;15.71;49.91;98099.91;107102;1277;22714;-82
2022/05/29 08:40:51;;;;;;;5.70;1.70;;;;;;;15.73;49.78;98101.88;106522;1277;138021;-81
2022/05/29 08:43:48;;;;;;;4.80;1.50;;;;;;;15.78;49.53;98097.13;106164;1280;25383;-81
2022/05/29 08:46:23;;;;;;;5.20;1.80;;;;;;;15.97;49.31;98094.48;106268;1278;24400;-80
2022/05/29 08:48:52;;;;;;;4.80;1.40;;;;;;;15.93;49.39;98091.73;106690;1278;137835;-81
2022/05/29 08:51:33;;;;;;;;;;;;;;;16.14;49.71;98089.54;106340;1277;24385;-81
2022/05/29 08:54:16;;;;;;;4.10;1.50;;;;;;;16.37;49.12;98091.33;106354;1277;124154;-81
2022/05/29 08:56:55;;;;;;;5.10;1.60;;;;;;;16.53;47.51;98086.58;107123;1277;26525;-81
2022/05/29 08:59:44;;;;;;;4.60;1.70;;;;;;;16.66;47.39;98082.95;106272;1277;137869;-81
2022/05/29 09:02:30;;;;;;;4.50;1.40;;;;;;;16.91;47.37;98081.84;106143;1277;22560;-80
2022/05/29 09:05:06;;;;;;;4.70;1.70;;;;;;;17.13;46.07;98074.93;106270;1277;137859;-80
2022/05/29 09:07:37;;;;;;;4.70;1.90;;;;;;;17.31;45.93;98074.72;106814;1277;25264;-81
2022/05/29 09:10:47;;;;;;;2.70;1.40;;;;;;;17.51;45.43;98073.64;107090;1277;22557;-81
2022/05/29 09:13:20;;;;;;;2.70;1.30;;;;;;;17.67;44.80;98068.26;106187;1277;137365;-81
2022/05/29 09:15:53;;;;;;;7.30;1.70;;;;;;;17.67;44.68;98063.97;106760;1277;25608;-81
2022/05/29 09:18:38;;;;;;;3.10;1.20;;;;;;;17.61;44.80;98065.98;106547;1276;137502;-81
2022/05/29 09:21:14;;;;;;;2.70;1.30;;;;;;;17.54;44.58;98071.77;106342;1277;22586;-82
2022/05/29 09:24:08;;;;;;;4.00;1.40;;;;;;;17.42;44.38;98071.45;106471;1277;137594;-82
2022/05/29 09:26:37;;;;;;;7.10;2.20;;;;;;;17.45;44.04;98071.90;106361;1279;24234;-81
2022/05/29 09:29:11;;;;;;;2.90;1.10;;;;;;;17.69;44.89;98068.60;106760;1276;137731;-81
2022/05/29 09:31:43;;;;;;;5.20;1.10;;;;;;;18.08;44.11;98066.67;106570;1277;26682;-82
2022/05/29 09:34:11;;;;;;;4.90;1.30;;;;;;;18.41;42.44;98060.22;106818;1277;22555;-82
2022/05/29 09:36:57;;;;;;;3.70;1.00;;;;;;;18.74;41.45;98056.23;106358;1277;137622;-82
2022/05/29 09:39:28;;;;;;;1.90;0.80;;;;;;;19.09;41.99;98053.77;106092;1278;30437;-81
2022/05/29 09:42:12;;;;;;;4.10;0.90;;;;;;;19.31;39.32;98056.02;106310;1278;137683;-82
2022/05/29 09:44:38;;;;;;;3.60;1.00;;;;;;;19.29;38.51;98051.94;106114;1280;22563;-82
2022/05/29 09:50:03;;;;;;;2.70;1.00;;;;;;;19.33;39.07;98051.35;106896;1277;30374;-82
2022/05/29 09:52:35;;;;;;;3.00;0.80;;;;;;;19.48;38.54;98046.41;106512;1277;26587;-84
2022/05/29 09:55:08;;;;;;;2.80;0.90;;;;;;;19.56;37.02;98039.69;106035;1277;137705;-82
2022/05/29 09:57:49;;;;;;;5.00;1.50;;;;;;;19.57;36.87;98037.37;106845;1277;22611;-83
2022/05/29 10:00:32;;;;;;;3.90;1.00;;;;;;;19.32;35.46;98033.57;106206;1277;137837;-82
2022/05/29 10:03:01;;;;;;;4.10;0.90;;;;;;;18.91;36.69;98027.58;106497;1277;22553;-82
2022/05/29 10:05:38;;;;;;;2.40;1.30;;;;;;;19.09;37.70;98023.10;106231;1277;137757;-81
2022/05/29 10:08:27;;;;;;;4.30;0.90;;;;;;;19.16;38.17;98018.61;106721;1276;24227;-82
2022/05/29 10:10:54;;;;;;;2.10;1.10;;;;;;;19.23;38.21;98016.36;106058;1277;137767;-81
2022/05/29 10:13:41;;;;;;;2.40;1.00;;;;;;;19.46;38.16;98018.73;106414;1279;25396;-81
2022/05/29 10:16:10;;;;;;;4.40;0.80;;;;;;;19.61;36.82;98009.52;106894;1277;23943;-82
2022/05/29 10:18:39;;;;;;;3.70;1.20;;;;;;;19.80;36.54;98005.91;106443;1277;138418;-82
2022/05/29 10:21:05;;;;;;;2.20;1.00;;;;;;;19.70;36.65;98003.54;106447;1281;25352;-82
2022/05/29 10:23:36;;;;;;;3.10;1.10;;;;;;;19.68;36.02;98004.19;106380;1280;138387;-83
2022/05/29 10:26:23;;;;;;;2.90;0.80;;;;;;;19.68;35.64;97999.95;106299;1277;22554;-82
2022/05/29 10:28:51;;;;;;;2.10;0.70;;;;;;;19.59;34.10;97992.45;106544;1278;22807;-82
2022/05/29 10:31:30;;;;;;;3.20;0.80;;;;;;;19.80;35.35;97991.08;106356;1278;137767;-83
2022/05/29 10:34:20;;;;;;;3.80;1.00;;;;;;;20.15;34.53;97988.81;106375;1277;25499;-82
2022/05/29 10:36:46;;;;;;;2.30;0.60;;;;;;;20.48;34.34;97986.54;106467;1278;138208;-82
2022/05/29 10:39:18;;;;;;;3.70;0.90;;;;;;;20.79;34.58;97974.63;106565;1277;22547;-83
2022/05/29 10:41:44;;;;;;;2.80;1.40;;;;;;;21.12;34.35;97970.05;106900;1277;137978;-83
2022/05/29 10:44:14;;;;;;;2.40;0.90;;;;;;;21.41;34.58;97971.70;106596;1276;24379;-82
2022/05/29 10:46:43;;;;;;;4.30;1.10;;;;;;;21.69;34.43;97972.75;106809;1276;22638;-82
2022/05/29 10:49:26;;;;;;;3.00;1.10;;;;;;;21.80;33.32;97975.11;106360;1276;138268;-84
2022/05/29 10:52:11;;;;;;;2.90;1.00;;;;;;;21.78;32.79;97981.66;106277;1277;22567;-84
2022/05/29 10:54:50;;;;;;;4.40;1.20;;;;;;;21.37;32.46;97983.58;106234;1278;138574;-83
2022/05/29 10:57:16;;;;;;;2.00;1.00;;;;;;;20.90;33.90;97981.71;106431;1277;23282;-83
2022/05/29 11:00:15;;;;;;;2.80;0.90;;;;;;;20.88;33.86;97991.83;106502;1277;138039;-80
2022/05/29 11:05:23;;;;;;;3.20;1.00;;;;;;;20.63;34.20;97997.44;102947;1313;545912;-82
2022/05/29 11:07:56;;;;;;;2.30;0.90;;;;;;;20.65;34.39;97990.36;105749;1286;24417;-82
2022/05/29 11:10:35;;;;;;;2.60;1.10;;;;;;;20.53;33.77;97986.77;106019;1287;22570;-82
2022/05/29 11:13:13;;;;;;;4.10;1.00;;;;;;;20.46;33.82;97983.17;105258;1284;136787;-82
2022/05/29 11:16:09;;;;;;;3.40;0.90;;;;;;;20.35;34.38;97982.21;105039;1289;30370;-82
2022/05/29 11:19:29;;;;;;;3.00;0.80;;;;;;;20.26;34.49;97985.63;104837;1286;338101;-82
2022/05/29 11:22:24;;;;;;;2.90;0.70;;;;;;;20.17;34.13;97989.70;106069;1279;24304;-82
2022/05/29 11:24:52;;;;;;;3.50;0.80;;;;;;;20.13;33.74;97990.29;106078;1279;136610;-82
2022/05/29 11:27:49;;;;;;;3.70;0.70;;;;;;;20.06;34.27;97982.53;106259;1279;24574;-82
2022/05/29 11:30:33;;;;;;;4.60;0.90;;;;;;;20.14;34.16;97982.52;105846;1280;136829;-82
2022/05/29 11:33:13;;;;;;;2.30;0.90;;;;;;;20.25;32.83;97977.67;106007;1280;25501;-81
2022/05/29 11:36:16;;;;;;;1.90;0.70;;;;;;;20.08;32.97;97974.84;106236;1279;136880;-84
2022/05/29 11:38:49;;;;;;;2.10;0.90;;;;;;;19.90;33.36;97973.73;106322;1279;23958;-82
2022/05/29 11:42:05;;;;;;;3.70;0.80;;;;;;;19.96;33.76;97968.34;106030;1279;136863;-82
2022/05/29 11:44:42;;;;;;;1.70;0.50;;;;;;;19.95;33.09;97963.81;106068;1279;22827;-82
2022/05/29 11:53:49;;;;;;;2.50;0.80;;;;;;;20.68;32.74;97961.67;106397;1279;137303;-82
2022/05/29 11:56:26;;;;;;;3.90;0.90;;;;;;;20.62;32.10;97961.84;106390;1277;23443;-81
2022/05/29 11:59:11;;;;;;;3.10;0.70;;;;;;;20.68;32.16;97958.34;105967;1278;24380;-83
2022/05/29 12:01:46;;;;;;;2.70;0.80;;;;;;;20.92;31.51;97955.55;106074;1277;136764;-81
2022/05/29 12:04:32;;;;;;;;;;;;;;;21.32;32.14;97945.85;106161;1279;24396;-81
2022/05/29 12:07:11;;;;;;;3.10;0.70;;;;;;;21.48;31.01;97941.34;106077;1277;123297;-81
2022/05/29 12:09:38;;;;;;;;;;;;;;;21.65;30.30;97937.03;106157;1277;24333;-82
2022/05/29 12:12:10;;;;;;;2.20;0.60;;;;;;;21.90;30.10;97930.39;107218;1277;123481;-82
2022/05/29 12:14:44;;;;;;;2.40;0.60;;;;;;;22.03;28.54;97923.61;106317;1280;23767;-81
2022/05/29 12:17:20;;;;;;;1.70;0.70;;;;;;;22.02;28.82;97919.27;106556;1279;25525;-80
2022/05/29 12:19:59;;;;;;;2.60;0.80;;;;;;;22.02;29.50;97912.98;106447;1279;137309;-82
2022/05/29 12:22:31;;;;;;;1.80;0.70;;;;;;;22.28;30.28;97902.45;106522;1279;22942;-82
2022/05/29 12:24:58;;;;;;;2.20;0.60;;;;;;;22.57;30.20;97893.27;106423;1280;136902;-82
2022/05/29 12:27:40;;;;;;;1.80;0.80;;;;;;;22.85;30.21;97884.63;106221;1280;32602;-82
2022/05/29 12:30:33;;;;;;;2.30;0.80;;;;;;;22.88;30.26;97896.70;105798;1279;138310;-82
2022/05/29 12:33:08;;;;;;;3.40;0.80;;;;;;;22.65;30.01;97912.05;106138;1280;22703;-82
2022/05/29 12:36:31;;;;;;;1.70;0.80;;;;;;;22.19;29.18;97914.05;106045;1279;139160;-83